Time;durP1;ratioP1;P1;durP2;ratioP2;P2;SDS_P1;SDS_P2;PMS_P1;PMS_P2;Temp;Humidity;BMP_temperature;BMP_pressure;BME280_temperature;BME280_humidity;BME280_pressure;Samples;Min_cycle;Max_cycle;Signal;HPM_P1;HPM_P2
2022/08/31 00:05:57;;;;;;;6.80;3.50;;;26.20;71.70;;;;;;5057852;28;20202;-84
2022/08/31 00:08:27;;;;;;;9.50;3.63;;;26.20;71.60;;;;;;5057979;28;20788;-80
2022/08/31 00:10:56;;;;;;;11.40;3.63;;;26.30;71.90;;;;;;5056496;28;20202;-83
2022/08/31 00:13:26;;;;;;;6.45;3.60;;;26.30;71.80;;;;;;5053579;28;20195;-83
2022/08/31 00:15:57;;;;;;;7.25;3.28;;;26.30;71.80;;;;;;5056389;28;20203;-84
2022/08/31 00:18:27;;;;;;;8.80;3.15;;;26.20;71.60;;;;;;5057671;28;20293;-80
2022/08/31 00:20:56;;;;;;;5.82;3.35;;;26.30;71.50;;;;;;5055622;28;20218;-80
2022/08/31 00:23:24;;;;;;;7.63;3.45;;;26.30;71.50;;;;;;5059107;28;20194;-80
2022/08/31 00:25:53;;;;;;;6.90;3.22;;;26.30;71.40;;;;;;5055820;28;20191;-81
2022/08/31 00:28:21;;;;;;;7.40;3.65;;;26.30;71.30;;;;;;5054126;28;20205;-80
2022/08/31 00:30:50;;;;;;;6.47;3.67;;;26.30;71.20;;;;;;5058422;28;20210;-80
2022/08/31 00:33:18;;;;;;;6.93;3.13;;;26.30;71.10;;;;;;5055820;28;20679;-80
2022/08/31 00:35:48;;;;;;;6.38;3.90;;;26.30;71.00;;;;;;5059916;28;20252;-80
2022/08/31 00:38:17;;;;;;;5.88;3.60;;;26.30;70.90;;;;;;5061861;28;20209;-79
2022/08/31 00:40:47;;;;;;;5.90;3.47;;;26.30;70.90;;;;;;5058115;28;20208;-80
2022/08/31 00:43:34;;;;;;;7.70;3.60;;;26.30;70.80;;;;;;5061074;28;20226;-80
2022/08/31 00:46:02;;;;;;;8.57;3.22;;;26.30;70.90;;;;;;5056586;28;20205;-80
2022/08/31 00:48:31;;;;;;;5.78;3.50;;;26.30;70.80;;;;;;5061307;28;20741;-79
2022/08/31 00:51:02;;;;;;;8.32;3.28;;;26.30;70.80;;;;;;5060844;28;20198;-79
2022/08/31 00:53:30;;;;;;;7.63;4.32;;;26.30;70.80;;;;;;5057478;28;20648;-79
2022/08/31 00:55:59;;;;;;;7.10;3.90;;;26.30;70.90;;;;;;5059121;28;20770;-80
2022/08/31 00:58:27;;;;;;;6.80;3.13;;;26.30;70.80;;;;;;5061884;28;20202;-78
2022/08/31 01:00:56;;;;;;;10.00;4.13;;;26.30;70.90;;;;;;5062238;28;20226;-80
2022/08/31 01:03:25;;;;;;;10.07;3.95;;;26.30;71.00;;;;;;5062884;28;20206;-79
2022/08/31 01:05:54;;;;;;;6.72;3.53;;;26.30;71.20;;;;;;5061565;28;20473;-80
2022/08/31 01:08:23;;;;;;;9.55;4.30;;;26.30;71.20;;;;;;5058743;28;20226;-80
2022/08/31 01:10:59;;;;;;;8.48;3.95;;;26.20;71.30;;;;;;5059313;28;20190;-78
2022/08/31 01:13:29;;;;;;;7.82;3.92;;;26.20;71.70;;;;;;5059627;28;20203;-80
2022/08/31 01:16:03;;;;;;;9.35;4.20;;;26.20;72.10;;;;;;5061408;28;20231;-78
2022/08/31 01:18:34;;;;;;;9.27;3.58;;;26.20;72.30;;;;;;5055725;28;20573;-80
2022/08/31 01:21:14;;;;;;;6.78;3.88;;;26.20;72.60;;;;;;5057894;28;20225;-80
2022/08/31 01:23:44;;;;;;;6.85;4.43;;;26.10;73.00;;;;;;5062545;28;20193;-79
2022/08/31 01:26:17;;;;;;;8.00;4.88;;;26.10;73.10;;;;;;5059890;28;20198;-79
2022/08/31 01:28:46;;;;;;;8.05;4.10;;;26.00;73.10;;;;;;5058974;28;20652;-80
2022/08/31 01:31:20;;;;;;;5.75;3.75;;;26.00;73.60;;;;;;5061960;28;20659;-81
2022/08/31 01:33:49;;;;;;;8.38;4.50;;;26.00;74.00;;;;;;5055934;28;20537;-78
2022/08/31 01:36:19;;;;;;;8.55;4.28;;;26.00;75.20;;;;;;5058333;28;20692;-79
2022/08/31 01:38:50;;;;;;;6.03;3.90;;;26.00;75.00;;;;;;5063162;28;20194;-80
2022/08/31 01:41:20;;;;;;;9.48;4.45;;;25.90;75.00;;;;;;5061048;28;20218;-80
2022/08/31 01:43:49;;;;;;;11.95;4.28;;;25.90;74.90;;;;;;5061212;28;20213;-80
2022/08/31 01:46:17;;;;;;;6.03;4.50;;;25.90;75.20;;;;;;5061934;28;20898;-79
2022/08/31 01:48:47;;;;;;;7.03;4.57;;;25.90;75.30;;;;;;5063732;28;20727;-78
2022/08/31 01:51:19;;;;;;;9.65;5.38;;;25.80;75.50;;;;;;5057808;28;20202;-78
2022/08/31 01:53:51;;;;;;;7.18;4.68;;;25.80;75.80;;;;;;5058621;28;20588;-79
2022/08/31 01:56:22;;;;;;;8.70;5.15;;;25.80;75.90;;;;;;5058833;28;20678;-80
2022/08/31 01:58:51;;;;;;;10.07;4.88;;;25.80;76.10;;;;;;5052797;28;20190;-79
2022/08/31 02:01:21;;;;;;;8.77;5.07;;;25.70;77.50;;;;;;5056158;28;20225;-80
2022/08/31 02:04:00;;;;;;;7.13;5.15;;;25.70;77.60;;;;;;5051803;28;20222;-80
2022/08/31 02:06:29;;;;;;;9.15;5.28;;;25.70;77.50;;;;;;5060783;28;20205;-80
2022/08/31 02:08:58;;;;;;;8.57;4.55;;;25.60;77.60;;;;;;5059805;28;20229;-77
2022/08/31 02:11:27;;;;;;;10.02;5.43;;;25.60;78.00;;;;;;5056401;28;20198;-78
2022/08/31 02:13:55;;;;;;;9.45;4.82;;;25.60;78.40;;;;;;5061115;28;20201;-81
2022/08/31 02:16:24;;;;;;;8.45;5.13;;;25.60;78.30;;;;;;5058301;28;20206;-78
2022/08/31 02:18:52;;;;;;;9.73;5.10;;;25.50;78.40;;;;;;5061419;28;20289;-79
2022/08/31 02:21:21;;;;;;;11.40;4.90;;;25.50;78.40;;;;;;5060231;28;20234;-80
2022/08/31 02:23:50;;;;;;;8.27;4.40;;;25.50;78.40;;;;;;5053337;28;20194;-79
2022/08/31 02:26:21;;;;;;;7.90;5.55;;;25.50;78.30;;;;;;5051688;28;20702;-81
2022/08/31 02:28:50;;;;;;;6.53;4.57;;;25.50;78.50;;;;;;5060478;28;20213;-80
2022/08/31 02:31:18;;;;;;;10.80;4.70;;;25.50;78.50;;;;;;5059310;28;20771;-81
2022/08/31 02:33:47;;;;;;;9.60;4.97;;;25.50;78.50;;;;;;5059604;28;20198;-81
2022/08/31 02:36:16;;;;;;;8.60;4.78;;;25.50;78.60;;;;;;5054586;28;20734;-80
2022/08/31 02:38:44;;;;;;;12.48;4.85;;;25.50;78.60;;;;;;5058944;28;20190;-81
2022/08/31 02:41:13;;;;;;;8.80;4.43;;;25.50;78.70;;;;;;5061799;28;20283;-80
2022/08/31 02:43:43;;;;;;;8.45;4.68;;;25.50;78.50;;;;;;5061420;28;20320;-80
2022/08/31 02:46:11;;;;;;;9.00;4.80;;;25.50;78.40;;;;;;5058879;28;20190;-79
2022/08/31 02:48:40;;;;;;;10.65;5.05;;;25.50;78.50;;;;;;5058698;28;20543;-80
2022/08/31 02:51:10;;;;;;;13.93;5.03;;;25.50;78.60;;;;;;5059356;28;20202;-79
2022/08/31 02:53:39;;;;;;;11.73;4.55;;;25.50;78.40;;;;;;5056764;28;20202;-80
2022/08/31 02:56:08;;;;;;;13.63;5.60;;;25.50;78.40;;;;;;5058981;28;20190;-80
2022/08/31 02:58:36;;;;;;;7.63;4.68;;;25.50;78.30;;;;;;5059743;28;20198;-81
2022/08/31 03:01:07;;;;;;;8.18;4.80;;;25.50;78.30;;;;;;5050755;28;20207;-80
2022/08/31 03:03:36;;;;;;;9.27;4.78;;;25.50;79.00;;;;;;5056383;28;20226;-80
2022/08/31 03:06:05;;;;;;;6.13;4.22;;;25.50;78.10;;;;;;5055989;28;20190;-81
2022/08/31 03:08:33;;;;;;;11.48;6.05;;;25.60;78.30;;;;;;5055052;28;20734;-81
2022/08/31 03:11:02;;;;;;;10.02;5.22;;;25.50;78.40;;;;;;5059382;28;20598;-82
2022/08/31 03:13:30;;;;;;;11.30;5.88;;;25.50;78.70;;;;;;5054278;28;20202;-82
2022/08/31 03:15:59;;;;;;;7.95;5.05;;;25.50;79.00;;;;;;5059243;28;20201;-81
2022/08/31 03:18:29;;;;;;;12.00;6.03;;;25.50;79.20;;;;;;5056969;28;20190;-82
2022/08/31 03:20:57;;;;;;;9.88;5.85;;;25.50;79.00;;;;;;5051051;28;20229;-82
2022/08/31 03:23:26;;;;;;;10.32;5.13;;;25.50;78.90;;;;;;5060891;28;20217;-82
2022/08/31 03:25:55;;;;;;;8.77;5.47;;;25.50;78.90;;;;;;5055568;28;20198;-81
2022/08/31 03:28:23;;;;;;;9.95;5.50;;;25.50;78.70;;;;;;5046905;28;20206;-81
2022/08/31 03:30:52;;;;;;;7.15;4.85;;;25.50;78.60;;;;;;5059598;28;20198;-82
2022/08/31 03:33:20;;;;;;;8.65;5.60;;;25.50;78.70;;;;;;5060749;28;20253;-81
2022/08/31 03:35:52;;;;;;;13.43;5.22;;;25.50;78.40;;;;;;5056816;28;20202;-81
2022/08/31 03:38:21;;;;;;;10.48;5.05;;;25.60;78.40;;;;;;5055454;28;20203;-82
2022/08/31 03:40:49;;;;;;;11.43;5.00;;;25.60;78.30;;;;;;5056141;28;20195;-82
2022/08/31 03:43:20;;;;;;;9.15;5.22;;;25.60;78.20;;;;;;5057777;28;20624;-82
2022/08/31 03:45:48;;;;;;;11.90;4.90;;;25.60;78.10;;;;;;5059337;28;20194;-80
2022/08/31 03:48:17;;;;;;;7.32;5.00;;;25.60;77.90;;;;;;5047478;28;20300;-81
2022/08/31 03:50:46;;;;;;;9.02;5.18;;;25.60;77.70;;;;;;5058747;28;21167;-80
2022/08/31 03:53:16;;;;;;;8.77;4.70;;;25.60;77.60;;;;;;5059661;28;20190;-81
2022/08/31 03:55:50;;;;;;;8.55;4.63;;;25.70;77.50;;;;;;5052829;28;20274;-83
2022/08/31 03:58:18;;;;;;;9.90;4.88;;;25.70;77.40;;;;;;5060256;28;20269;-87
2022/08/31 04:00:47;;;;;;;9.93;5.07;;;25.70;77.20;;;;;;5047569;28;20574;-84
2022/08/31 04:03:15;;;;;;;9.15;5.20;;;25.70;77.20;;;;;;5056390;28;20226;-83
2022/08/31 04:05:44;;;;;;;7.47;5.43;;;25.70;77.10;;;;;;5058337;28;20201;-85
2022/08/31 04:08:13;;;;;;;9.43;5.15;;;25.80;77.00;;;;;;5059346;28;20333;-85
2022/08/31 04:10:47;;;;;;;9.38;5.28;;;25.70;76.90;;;;;;5062666;28;20202;-84
2022/08/31 04:13:16;;;;;;;9.05;5.00;;;25.80;76.80;;;;;;5061335;28;20194;-83
2022/08/31 04:15:45;;;;;;;10.18;4.80;;;25.80;76.80;;;;;;5070413;28;20194;-84
2022/08/31 04:18:13;;;;;;;8.23;5.05;;;25.80;76.70;;;;;;5059773;28;20218;-84
2022/08/31 04:20:42;;;;;;;13.02;4.82;;;25.80;76.70;;;;;;5060955;28;20198;-85
2022/08/31 04:23:11;;;;;;;9.63;5.53;;;25.80;76.70;;;;;;5065046;28;20221;-81
2022/08/31 04:25:41;;;;;;;9.23;4.93;;;25.90;76.70;;;;;;5063961;28;20199;-85
2022/08/31 04:28:11;;;;;;;11.05;5.55;;;25.90;76.90;;;;;;5062036;28;20309;-83
2022/08/31 04:30:40;;;;;;;11.65;5.07;;;25.80;76.60;;;;;;5059395;28;20305;-84
2022/08/31 04:33:09;;;;;;;11.70;5.95;;;25.90;77.00;;;;;;5057775;28;20527;-85
2022/08/31 04:35:39;;;;;;;9.65;5.38;;;25.90;77.50;;;;;;5064618;28;20220;-87
2022/08/31 04:38:08;;;;;;;11.38;5.75;;;25.90;77.40;;;;;;5063462;28;20203;-82
2022/08/31 04:40:39;;;;;;;11.40;5.35;;;25.90;77.50;;;;;;5060101;28;20213;-82
2022/08/31 04:43:08;;;;;;;11.95;5.70;;;25.90;77.50;;;;;;5057187;28;20747;-82
2022/08/31 04:45:42;;;;;;;9.80;5.45;;;25.90;77.60;;;;;;5061541;28;20194;-82
2022/08/31 04:48:13;;;;;;;9.30;5.35;;;25.90;77.60;;;;;;5056022;28;20194;-83
2022/08/31 04:50:42;;;;;;;14.15;5.72;;;25.90;77.70;;;;;;5060254;28;20213;-83
2022/08/31 04:53:11;;;;;;;10.52;5.40;;;25.90;77.70;;;;;;5062067;28;20256;-81
2022/08/31 04:55:40;;;;;;;10.57;5.68;;;25.90;77.70;;;;;;5058306;28;20201;-83
2022/08/31 04:58:08;;;;;;;10.57;5.95;;;25.90;77.90;;;;;;5055062;28;20701;-83
2022/08/31 05:00:37;;;;;;;12.52;6.13;;;25.90;78.00;;;;;;5059750;28;20205;-83
2022/08/31 05:03:10;;;;;;;11.55;5.85;;;25.90;79.00;;;;;;5065410;28;20214;-83
2022/08/31 05:05:39;;;;;;;11.85;6.30;;;25.90;78.30;;;;;;5062096;28;20197;-85
2022/08/31 05:08:11;;;;;;;12.90;5.90;;;25.90;78.20;;;;;;5060290;28;20237;-83
2022/08/31 05:10:41;;;;;;;11.43;5.90;;;25.90;78.30;;;;;;5061172;28;21535;-86
2022/08/31 05:13:10;;;;;;;13.52;6.18;;;25.90;78.40;;;;;;5063837;28;20198;-84
2022/08/31 05:15:42;;;;;;;9.98;5.93;;;25.90;78.30;;;;;;5062660;28;20228;-83
2022/08/31 05:18:12;;;;;;;10.70;6.15;;;25.90;78.50;;;;;;5064832;28;20194;-82
2022/08/31 05:20:41;;;;;;;11.18;6.57;;;25.90;78.60;;;;;;5061017;28;20202;-81
2022/08/31 05:23:10;;;;;;;11.35;5.97;;;25.90;78.80;;;;;;5067659;28;20301;-85
2022/08/31 05:25:40;;;;;;;10.45;6.35;;;25.90;79.00;;;;;;5059103;28;20669;-83
2022/08/31 05:28:10;;;;;;;11.63;6.20;;;25.90;78.90;;;;;;5065229;28;20200;-83
2022/08/31 05:30:43;;;;;;;10.90;6.25;;;25.90;78.90;;;;;;5060780;28;20222;-82
2022/08/31 05:33:15;;;;;;;14.30;5.90;;;25.90;78.90;;;;;;5060819;28;20191;-85
2022/08/31 05:35:46;;;;;;;14.52;6.53;;;25.90;78.80;;;;;;5063366;28;20191;-83
2022/08/31 05:38:15;;;;;;;12.10;6.80;;;26.00;79.40;;;;;;5062039;28;20610;-80
2022/08/31 05:40:44;;;;;;;9.90;6.07;;;25.90;79.10;;;;;;5061602;28;20214;-82
2022/08/31 05:43:12;;;;;;;10.90;5.80;;;26.00;79.00;;;;;;5062355;28;20214;-83
2022/08/31 05:45:42;;;;;;;10.40;6.25;;;26.00;79.00;;;;;;5060168;28;20692;-84
2022/08/31 05:48:11;;;;;;;8.75;5.85;;;26.00;78.80;;;;;;5059908;28;20557;-83
2022/08/31 05:50:41;;;;;;;10.87;6.73;;;26.00;78.70;;;;;;5061099;28;20436;-82
2022/08/31 05:53:10;;;;;;;12.35;6.63;;;26.10;79.10;;;;;;5059730;28;20205;-80
2022/08/31 05:55:39;;;;;;;12.00;6.55;;;26.10;79.10;;;;;;5057073;28;20286;-81
2022/08/31 05:58:09;;;;;;;11.27;6.05;;;26.00;78.70;;;;;;5061343;28;20209;-82
2022/08/31 06:00:39;;;;;;;11.23;6.40;;;26.00;78.40;;;;;;5061103;28;20194;-83
2022/08/31 06:03:07;;;;;;;10.82;5.65;;;26.00;78.50;;;;;;5060322;28;22090;-82
2022/08/31 06:05:36;;;;;;;9.93;6.18;;;26.00;78.40;;;;;;5062785;28;20229;-83
2022/08/31 06:08:06;;;;;;;10.93;6.57;;;26.00;78.50;;;;;;5057807;28;20221;-83
2022/08/31 06:10:40;;;;;;;9.93;5.97;;;26.00;78.40;;;;;;5059287;28;20279;-82
2022/08/31 06:13:09;;;;;;;9.85;5.80;;;26.00;78.50;;;;;;5058716;28;20195;-83
2022/08/31 06:15:37;;;;;;;12.02;5.90;;;26.00;78.40;;;;;;5062412;28;20777;-82
2022/08/31 06:18:10;;;;;;;10.73;5.93;;;26.10;78.60;;;;;;5062524;28;20731;-83
2022/08/31 06:20:38;;;;;;;8.95;5.85;;;26.10;78.60;;;;;;5062512;28;20202;-81
2022/08/31 06:23:09;;;;;;;18.30;6.00;;;26.10;78.50;;;;;;5062768;28;20190;-83
2022/08/31 06:25:38;;;;;;;13.13;5.82;;;26.10;78.60;;;;;;5064115;28;20945;-83
2022/08/31 06:28:13;;;;;;;10.45;5.65;;;26.10;78.50;;;;;;5055660;28;20202;-83
2022/08/31 06:30:42;;;;;;;13.90;6.20;;;26.10;78.40;;;;;;5063519;28;20202;-83
2022/08/31 06:33:22;;;;;;;8.63;5.60;;;26.20;78.50;;;;;;5051227;28;20205;-81
2022/08/31 06:35:51;;;;;;;9.38;5.75;;;26.20;78.30;;;;;;5049838;28;20209;-81
2022/08/31 06:38:23;;;;;;;10.15;6.18;;;26.30;78.40;;;;;;5058221;28;20201;-82
2022/08/31 06:40:52;;;;;;;10.73;5.90;;;26.30;78.40;;;;;;5052366;28;20804;-82
2022/08/31 06:43:20;;;;;;;11.50;6.32;;;26.40;78.40;;;;;;5048829;28;20827;-81
2022/08/31 06:45:51;;;;;;;11.88;6.05;;;26.50;78.40;;;;;;5059808;28;20712;-84
2022/08/31 06:48:20;;;;;;;13.07;6.68;;;26.50;77.70;;;;;;5060911;28;20206;-82
2022/08/31 06:50:56;;;;;;;9.20;5.88;;;26.60;77.00;;;;;;5051122;28;20191;-83
2022/08/31 06:53:26;;;;;;;12.82;6.20;;;26.60;76.20;;;;;;5057413;28;20194;-80
2022/08/31 06:55:54;;;;;;;8.77;5.20;;;26.70;76.40;;;;;;5060929;28;20645;-81
2022/08/31 06:58:23;;;;;;;9.88;5.28;;;26.80;76.20;;;;;;5060048;28;20200;-80
2022/08/31 07:00:52;;;;;;;9.00;5.35;;;26.90;75.60;;;;;;5059426;28;20751;-83
2022/08/31 07:03:31;;;;;;;15.43;6.15;;;27.00;75.70;;;;;;5059949;28;20679;-79
2022/08/31 07:06:05;;;;;;;10.70;6.38;;;27.00;75.00;;;;;;5054552;28;20270;-79
2022/08/31 07:08:35;;;;;;;10.40;5.88;;;27.10;75.20;;;;;;5057707;28;20218;-78
2022/08/31 07:11:04;;;;;;;8.65;5.47;;;27.10;75.10;;;;;;5060063;28;20209;-80
2022/08/31 07:13:33;;;;;;;9.68;5.45;;;27.20;74.90;;;;;;5067141;28;20301;-80
2022/08/31 07:16:09;;;;;;;10.88;5.10;;;27.20;74.20;;;;;;5058158;28;20293;-77
2022/08/31 07:18:37;;;;;;;11.02;5.63;;;27.30;74.20;;;;;;5052087;28;20828;-80
2022/08/31 07:21:08;;;;;;;15.60;6.05;;;27.40;74.20;;;;;;5061454;28;20862;-77
2022/08/31 07:23:38;;;;;;;14.43;5.18;;;27.40;73.80;;;;;;5057485;28;20253;-80
2022/08/31 07:26:07;;;;;;;11.82;5.47;;;27.50;74.20;;;;;;5057738;28;20229;-78
2022/08/31 07:28:38;;;;;;;9.43;5.30;;;27.50;73.80;;;;;;5055230;28;20202;-80
2022/08/31 07:31:06;;;;;;;7.78;4.97;;;27.50;73.60;;;;;;5060282;28;20202;-79
2022/08/31 07:33:38;;;;;;;10.73;5.32;;;27.60;73.30;;;;;;5060944;28;20260;-80
2022/08/31 07:36:08;;;;;;;13.60;6.18;;;27.60;72.50;;;;;;5057002;28;20186;-79
2022/08/31 07:44:18;;;;;;;9.85;5.28;;;27.70;71.60;;;;;;5037024;28;20214;-80
2022/08/31 07:46:48;;;;;;;9.35;5.07;;;27.70;71.80;;;;;;5057060;28;20202;-79
2022/08/31 07:49:17;;;;;;;13.45;5.70;;;27.70;71.30;;;;;;5057130;28;20190;-80
2022/08/31 07:51:49;;;;;;;9.38;4.93;;;27.80;71.30;;;;;;5063364;28;20292;-79
2022/08/31 07:54:21;;;;;;;8.93;5.20;;;27.80;71.00;;;;;;5062279;28;20197;-80
2022/08/31 07:56:50;;;;;;;7.75;4.90;;;27.80;71.10;;;;;;5057687;28;20206;-79
2022/08/31 07:59:19;;;;;;;6.63;4.28;;;27.90;71.00;;;;;;5064517;28;20191;-79
2022/08/31 08:01:49;;;;;;;8.90;4.80;;;27.90;71.00;;;;;;5060438;28;20202;-78
2022/08/31 08:04:24;;;;;;;7.15;4.38;;;28.00;70.90;;;;;;5059655;28;20738;-78
2022/08/31 08:06:54;;;;;;;6.57;4.10;;;28.10;70.10;;;;;;5055946;28;20186;-80
2022/08/31 08:09:25;;;;;;;8.40;4.72;;;28.10;70.30;;;;;;5057917;28;20252;-77
2022/08/31 08:11:56;;;;;;;9.82;4.95;;;28.20;70.50;;;;;;5052964;28;20193;-76
2022/08/31 08:14:29;;;;;;;14.70;4.72;;;28.30;70.20;;;;;;5054259;28;20213;-76
2022/08/31 08:16:57;;;;;;;11.13;4.72;;;28.30;69.80;;;;;;5061444;28;20206;-78
2022/08/31 08:19:26;;;;;;;11.48;4.90;;;28.40;70.00;;;;;;5056730;28;20290;-78
2022/08/31 08:21:54;;;;;;;8.45;4.43;;;28.40;70.10;;;;;;5052312;28;20206;-79
2022/08/31 08:24:28;;;;;;;9.43;4.57;;;28.50;70.20;;;;;;5062063;28;20191;-77
2022/08/31 08:26:56;;;;;;;7.07;4.50;;;28.50;69.70;;;;;;5059744;28;21665;-78
2022/08/31 08:29:25;;;;;;;7.97;4.05;;;28.60;69.70;;;;;;5063612;28;20204;-78
2022/08/31 08:31:53;;;;;;;7.88;4.57;;;28.60;69.30;;;;;;5057710;28;20225;-78
2022/08/31 08:34:24;;;;;;;8.35;4.57;;;28.70;69.40;;;;;;5056784;28;20553;-77
2022/08/31 08:36:59;;;;;;;13.32;4.78;;;28.70;69.00;;;;;;5057100;28;20698;-78
2022/08/31 08:39:29;;;;;;;8.40;4.55;;;28.70;68.80;;;;;;5050926;28;20209;-79
2022/08/31 08:41:57;;;;;;;6.15;4.18;;;28.70;68.80;;;;;;5056265;28;20194;-78
2022/08/31 08:44:28;;;;;;;10.70;5.35;;;28.70;68.90;;;;;;5047131;28;20202;-78
2022/08/31 08:46:59;;;;;;;15.77;5.43;;;28.70;69.00;;;;;;5057121;28;20206;-78
2022/08/31 08:49:38;;;;;;;12.35;5.25;;;28.70;68.60;;;;;;5056286;28;20330;-77
2022/08/31 08:52:12;;;;;;;14.73;6.38;;;28.70;68.40;;;;;;5056668;28;20633;-80
2022/08/31 08:54:45;;;;;;;7.60;4.78;;;28.70;68.60;;;;;;5063131;28;20195;-80
2022/08/31 08:57:18;;;;;;;10.55;5.43;;;28.70;68.40;;;;;;5063545;28;20198;-80
2022/08/31 08:59:48;;;;;;;8.20;4.88;;;28.80;68.60;;;;;;5062817;28;20956;-81
2022/08/31 09:02:20;;;;;;;8.25;5.10;;;28.80;68.40;;;;;;5062241;28;20569;-79
2022/08/31 09:05:13;;;;;;;8.80;4.90;;;28.80;68.40;;;;;;5066052;28;20201;-80
2022/08/31 09:08:03;;;;;;;11.02;4.75;;;28.80;68.50;;;;;;5051633;28;20227;-80
2022/08/31 09:10:38;;;;;;;12.13;4.93;;;28.90;68.30;;;;;;5051480;28;20281;-79
2022/08/31 09:13:20;;;;;;;8.07;4.70;;;28.80;67.90;;;;;;5058415;28;20189;-78
2022/08/31 09:15:57;;;;;;;11.13;4.63;;;28.90;67.20;;;;;;5052785;28;20927;-81
2022/08/31 09:18:37;;;;;;;11.13;4.82;;;28.90;66.80;;;;;;5064572;28;20202;-79
2022/08/31 09:21:20;;;;;;;9.40;4.60;;;29.00;67.10;;;;;;5060332;28;20733;-80
2022/08/31 09:23:58;;;;;;;10.57;4.75;;;29.00;67.10;;;;;;5054036;28;20209;-78
2022/08/31 09:26:34;;;;;;;8.88;4.03;;;29.10;67.30;;;;;;5050774;28;20245;-80
2022/08/31 09:29:03;;;;;;;7.93;4.50;;;29.10;67.00;;;;;;5060137;28;20229;-79
2022/08/31 09:31:36;;;;;;;10.38;5.30;;;29.20;67.00;;;;;;5066573;28;20197;-80
2022/08/31 09:34:13;;;;;;;13.00;4.72;;;29.30;67.30;;;;;;5059868;28;20233;-79
2022/08/31 09:36:41;;;;;;;10.38;5.30;;;29.40;67.10;;;;;;5063165;28;20198;-79
2022/08/31 09:39:28;;;;;;;11.45;5.47;;;29.50;67.40;;;;;;5061938;28;20230;-78
2022/08/31 09:42:27;;;;;;;9.40;5.10;;;29.50;67.10;;;;;;5058453;28;20216;-78
2022/08/31 09:44:59;;;;;;;8.30;5.18;;;29.60;67.30;;;;;;5062924;28;20203;-78
2022/08/31 09:47:49;;;;;;;12.80;5.60;;;29.70;67.30;;;;;;5063970;28;20286;-78
2022/08/31 09:50:30;;;;;;;7.25;4.65;;;29.70;67.30;;;;;;5057725;28;21168;-80
2022/08/31 09:56:15;;;;;;;9.98;5.25;;;29.80;67.10;;;;;;5051443;28;20183;-84
2022/08/31 09:58:49;;;;;;;12.00;6.25;;;29.80;67.40;;;;;;5052206;28;20187;-79
2022/08/31 10:01:26;;;;;;;8.73;5.32;;;29.80;66.90;;;;;;5063700;28;20298;-79
2022/08/31 10:04:15;;;;;;;11.27;5.05;;;29.90;67.20;;;;;;5055377;28;20200;-80
2022/08/31 10:06:51;;;;;;;8.93;5.32;;;30.00;67.50;;;;;;5056864;28;20217;-76
2022/08/31 10:09:26;;;;;;;9.93;5.00;;;30.00;67.10;;;;;;5059177;28;20225;-78
2022/08/31 10:12:03;;;;;;;7.85;4.65;;;30.10;66.80;;;;;;5054534;28;20327;-83
2022/08/31 10:14:39;;;;;;;7.93;4.82;;;30.20;66.70;;;;;;5057670;28;20194;-79
2022/08/31 10:17:13;;;;;;;8.40;4.70;;;30.30;66.40;;;;;;5059133;28;20190;-78
2022/08/31 10:19:53;;;;;;;7.25;4.50;;;30.30;66.10;;;;;;5057716;28;20222;-78
2022/08/31 10:22:27;;;;;;;8.00;4.70;;;30.30;65.60;;;;;;5056365;28;20274;-81
2022/08/31 10:25:13;;;;;;;8.10;4.90;;;30.30;65.00;;;;;;5058350;28;20199;-77
2022/08/31 10:27:47;;;;;;;8.70;4.80;;;30.30;64.40;;;;;;5057080;28;20186;-78
2022/08/31 10:30:27;;;;;;;9.70;4.53;;;30.30;64.60;;;;;;5057888;28;20221;-80
2022/08/31 10:33:04;;;;;;;8.35;4.30;;;30.30;64.50;;;;;;5063222;28;20716;-79
2022/08/31 10:35:43;;;;;;;10.77;4.55;;;30.30;64.80;;;;;;5057750;28;20207;-79
2022/08/31 10:38:25;;;;;;;8.45;4.03;;;30.30;64.80;;;;;;5060467;28;20194;-77
2022/08/31 10:41:03;;;;;;;9.75;4.75;;;30.30;64.70;;;;;;5062429;28;20289;-78
2022/08/31 10:43:38;;;;;;;7.45;4.95;;;30.20;64.70;;;;;;5061945;28;20206;-78
2022/08/31 10:46:08;;;;;;;7.00;4.07;;;30.20;64.70;;;;;;5063641;28;20206;-78
2022/08/31 10:48:39;;;;;;;8.98;4.68;;;30.20;64.30;;;;;;5059672;28;20205;-79
2022/08/31 10:51:19;;;;;;;8.73;4.32;;;30.10;64.40;;;;;;5061839;28;20190;-79
2022/08/31 10:54:02;;;;;;;7.72;4.60;;;30.10;64.60;;;;;;5048520;28;20193;-77
2022/08/31 10:56:40;;;;;;;13.40;5.55;;;30.20;65.00;;;;;;5058160;28;20182;-78
2022/08/31 10:59:29;;;;;;;7.47;5.05;;;30.10;64.70;;;;;;5057118;28;20194;-78
2022/08/31 11:02:07;;;;;;;10.10;5.03;;;30.10;64.60;;;;;;5050864;28;20664;-77
2022/08/31 11:04:57;;;;;;;6.03;4.50;;;30.20;64.80;;;;;;5060087;28;20676;-77
2022/08/31 11:07:39;;;;;;;13.07;4.75;;;30.10;64.80;;;;;;5057549;28;20211;-79
2022/08/31 11:10:21;;;;;;;10.63;4.35;;;30.20;65.10;;;;;;5047935;28;20229;-77
2022/08/31 11:12:55;;;;;;;7.35;4.47;;;30.20;65.00;;;;;;5053860;28;20202;-80
2022/08/31 11:15:53;;;;;;;6.80;4.53;;;30.20;65.10;;;;;;5052470;28;20273;-77
2022/08/31 11:18:53;;;;;;;6.47;4.57;;;30.20;65.40;;;;;;5053520;28;20186;-78
2022/08/31 11:21:54;;;;;;;12.20;4.72;;;30.20;65.50;;;;;;5060450;28;20224;-78
2022/08/31 11:24:51;;;;;;;9.73;4.95;;;30.20;65.40;;;;;;5060031;28;20405;-78
2022/08/31 11:27:23;;;;;;;8.18;4.90;;;30.20;65.60;;;;;;5052368;28;20262;-78
2022/08/31 11:29:57;;;;;;;9.82;5.05;;;30.20;65.80;;;;;;5051344;28;20201;-77
2022/08/31 11:32:33;;;;;;;8.98;4.63;;;30.20;66.00;;;;;;5059372;28;20198;-80
2022/08/31 11:35:09;;;;;;;12.18;5.05;;;30.20;66.00;;;;;;5050483;28;20762;-77
2022/08/31 11:37:54;;;;;;;9.20;4.75;;;30.20;66.10;;;;;;5052512;28;20813;-78
2022/08/31 11:40:58;;;;;;;11.95;4.35;;;30.20;66.00;;;;;;5059239;28;20197;-80
2022/08/31 11:43:50;;;;;;;8.30;4.50;;;30.20;65.80;;;;;;5020754;28;20193;-78
2022/08/31 11:46:46;;;;;;;10.55;4.85;;;30.20;65.60;;;;;;5063109;28;20349;-80
2022/08/31 11:49:37;;;;;;;9.85;4.88;;;30.20;65.70;;;;;;5048505;28;20202;-80
2022/08/31 11:52:13;;;;;;;8.55;4.68;;;30.20;65.40;;;;;;5041713;28;20203;-79
2022/08/31 11:55:09;;;;;;;6.90;4.60;;;30.20;65.00;;;;;;5058748;28;20194;-77
2022/08/31 11:58:18;;;;;;;7.68;4.88;;;30.20;65.10;;;;;;5048694;28;20251;-78
2022/08/31 12:00:58;;;;;;;9.13;5.65;;;30.20;65.00;;;;;;5054572;28;20205;-78
2022/08/31 12:03:55;;;;;;;10.38;5.15;;;30.20;65.00;;;;;;5047089;28;20696;-79
2022/08/31 12:07:06;;;;;;;12.70;4.85;;;30.20;65.00;;;;;;5059602;28;20198;-78
2022/08/31 12:10:01;;;;;;;8.98;4.90;;;30.20;65.10;;;;;;5058516;28;20217;-77
2022/08/31 12:12:50;;;;;;;7.40;4.63;;;30.20;64.80;;;;;;5061364;28;20210;-77
2022/08/31 12:15:27;;;;;;;8.93;4.55;;;30.30;65.10;;;;;;5055900;28;20210;-78
2022/08/31 12:18:06;;;;;;;8.07;5.22;;;30.30;65.00;;;;;;5059004;28;20190;-77
2022/08/31 12:23:50;;;;;;;7.45;4.68;;;30.30;64.90;;;;;;5051826;28;20204;-78
2022/08/31 12:26:52;;;;;;;9.68;4.90;;;30.30;64.70;;;;;;5055014;28;20201;-78
2022/08/31 12:29:27;;;;;;;14.63;5.60;;;30.40;64.30;;;;;;5008538;28;20306;-78
2022/08/31 12:32:25;;;;;;;7.43;4.35;;;30.40;64.40;;;;;;5060654;28;20189;-77
2022/08/31 12:35:03;;;;;;;8.50;4.22;;;30.50;64.20;;;;;;5044347;28;20202;-77
2022/08/31 12:37:34;;;;;;;7.57;3.72;;;30.50;63.80;;;;;;5066240;28;20186;-81
2022/08/31 12:40:09;;;;;;;8.75;4.47;;;30.60;63.10;;;;;;5080153;28;20573;-78
2022/08/31 12:42:45;;;;;;;6.93;4.00;;;30.60;61.50;;;;;;5065199;28;20199;-81
2022/08/31 12:45:17;;;;;;;5.80;4.20;;;30.60;61.20;;;;;;5057367;28;20221;-80
2022/08/31 12:47:59;;;;;;;7.85;4.07;;;30.60;61.30;;;;;;5063313;28;20225;-81
2022/08/31 12:50:35;;;;;;;8.82;4.20;;;30.70;61.70;;;;;;5055215;28;20199;-81
2022/08/31 12:53:45;;;;;;;6.43;3.50;;;30.80;61.70;;;;;;5049761;28;20213;-80
2022/08/31 12:56:18;;;;;;;8.18;4.38;;;30.80;61.80;;;;;;5051436;28;20199;-81
2022/08/31 12:59:05;;;;;;;8.88;4.70;;;30.90;61.80;;;;;;5057689;28;20572;-82
2022/08/31 13:01:41;;;;;;;5.95;3.83;;;30.90;61.80;;;;;;5063100;28;20232;-80
2022/08/31 13:04:11;;;;;;;9.90;4.50;;;30.90;61.40;;;;;;5064929;28;20190;-80
2022/08/31 13:06:43;;;;;;;8.18;3.70;;;31.00;61.70;;;;;;5058234;28;20201;-82
2022/08/31 13:09:25;;;;;;;9.70;4.07;;;31.00;61.40;;;;;;5059753;28;20633;-80
2022/08/31 13:11:55;;;;;;;8.80;4.80;;;31.10;61.40;;;;;;5058743;28;20209;-80
2022/08/31 13:14:27;;;;;;;6.85;4.45;;;31.10;61.30;;;;;;5053398;28;20191;-82
2022/08/31 13:16:59;;;;;;;7.63;4.30;;;31.20;61.20;;;;;;5055411;28;20278;-81
2022/08/31 13:19:30;;;;;;;12.68;4.50;;;31.20;61.20;;;;;;5059186;28;20691;-82
2022/08/31 13:22:04;;;;;;;9.23;4.70;;;31.20;60.90;;;;;;5062650;28;20195;-77
2022/08/31 13:24:35;;;;;;;6.50;3.88;;;31.40;61.10;;;;;;5047808;28;20226;-80
2022/08/31 13:27:10;;;;;;;6.97;4.32;;;31.40;61.10;;;;;;5062716;28;20203;-80
2022/08/31 13:29:44;;;;;;;8.93;4.65;;;31.50;61.30;;;;;;5065715;28;20205;-82
2022/08/31 13:32:31;;;;;;;9.85;4.05;;;31.70;60.80;;;;;;5056761;28;20190;-80